createdAt,value
2018-05-12T00:00:30.076Z,11.14
2018-05-12T00:01:30.000Z,11.17
2018-05-12T00:02:29.924Z,11.11
2018-05-12T00:03:29.851Z,11.14
2018-05-12T00:04:29.773Z,11.20
2018-05-12T00:05:29.698Z,11.18
2018-05-12T00:06:29.621Z,11.13
2018-05-12T00:07:29.546Z,11.17
2018-05-12T00:08:29.471Z,11.17
2018-05-12T00:09:29.395Z,11.23
2018-05-12T00:10:29.319Z,11.14
2018-05-12T00:11:29.243Z,11.14
2018-05-12T00:12:29.168Z,11.10
2018-05-12T00:13:29.093Z,11.05
2018-05-12T00:14:29.017Z,11.10
2018-05-12T00:15:28.940Z,11.00
2018-05-12T00:16:28.865Z,11.06
2018-05-12T00:17:28.790Z,11.10
2018-05-12T00:18:28.716Z,11.17
2018-05-12T00:19:28.650Z,11.14
2018-05-12T00:20:28.663Z,11.13
2018-05-12T00:21:28.488Z,11.16
2018-05-12T00:22:28.412Z,11.11
2018-05-12T00:23:28.336Z,10.99
2018-05-12T00:24:28.259Z,11.06
2018-05-12T00:25:28.184Z,11.20
2018-05-12T00:26:28.109Z,11.14
2018-05-12T00:27:28.034Z,10.99
2018-05-12T00:28:27.958Z,11.02
2018-05-12T00:29:27.883Z,11.06
2018-05-12T00:30:27.806Z,11.00
2018-05-12T00:31:27.732Z,11.06
2018-05-12T00:32:27.656Z,10.98
2018-05-12T00:33:27.581Z,11.00
2018-05-12T00:34:27.504Z,10.98
2018-05-12T00:35:27.428Z,11.06
2018-05-12T00:36:27.354Z,11.18
2018-05-12T00:37:27.278Z,11.24
2018-05-12T00:38:27.202Z,11.35
2018-05-12T00:39:27.127Z,11.36
2018-05-12T00:40:27.051Z,11.34
2018-05-12T00:41:26.976Z,11.46
2018-05-12T00:42:26.900Z,11.54
2018-05-12T00:43:26.824Z,11.59
2018-05-12T00:44:26.749Z,11.65
2018-05-12T00:45:26.673Z,11.75
2018-05-12T00:46:26.597Z,11.83
2018-05-12T00:47:26.527Z,11.83
2018-05-12T00:48:26.451Z,11.93
2018-05-12T00:49:26.374Z,11.95
2018-05-12T00:50:26.296Z,11.98
2018-05-12T00:51:26.223Z,11.94
2018-05-12T00:52:26.150Z,12.05
2018-05-12T00:53:26.071Z,12.05
2018-05-12T00:54:25.996Z,12.02
2018-05-12T00:55:25.920Z,12.08
2018-05-12T00:56:25.846Z,12.13
2018-05-12T00:57:25.771Z,12.15
2018-05-12T00:58:25.695Z,12.12
2018-05-12T00:59:25.620Z,12.13
2018-05-12T01:00:25.545Z,12.12
2018-05-12T01:01:25.469Z,12.16
2018-05-12T01:02:25.395Z,12.11
2018-05-12T01:03:25.321Z,12.09
2018-05-12T01:04:25.262Z,12.19
2018-05-12T01:05:25.170Z,12.15
2018-05-12T01:06:25.094Z,12.13
2018-05-12T01:07:25.020Z,12.16
2018-05-12T01:08:24.944Z,12.06
2018-05-12T01:09:24.870Z,12.09
2018-05-12T01:10:24.795Z,12.15
2018-05-12T01:11:24.725Z,12.12
2018-05-12T01:12:24.646Z,12.06
2018-05-12T01:13:24.571Z,12.02
2018-05-12T01:14:24.496Z,11.95
2018-05-12T01:15:24.420Z,12.05
2018-05-12T01:16:24.344Z,12.02
2018-05-12T01:17:24.271Z,11.94
2018-05-12T01:18:24.195Z,11.89
2018-05-12T01:19:24.122Z,11.78
2018-05-12T01:20:34.313Z,11.81
2018-05-12T01:21:23.971Z,11.89
2018-05-12T01:22:23.898Z,11.87
2018-05-12T01:23:23.820Z,11.81
2018-05-12T01:24:23.746Z,11.74
2018-05-12T01:25:23.671Z,11.68
2018-05-12T01:26:23.597Z,11.76
2018-05-12T01:27:23.520Z,11.67
2018-05-12T01:28:23.446Z,11.68
2018-05-12T01:29:23.372Z,11.60
2018-05-12T01:30:23.297Z,11.67
2018-05-12T01:31:23.220Z,11.68
2018-05-12T01:32:23.144Z,11.54
2018-05-12T01:33:23.071Z,11.67
2018-05-12T01:34:22.995Z,11.67
2018-05-12T01:35:22.921Z,11.60
2018-05-12T01:36:22.845Z,11.65
2018-05-12T01:37:22.770Z,11.67
2018-05-12T01:38:22.694Z,11.65
2018-05-12T01:39:22.620Z,11.61
2018-05-12T01:40:22.545Z,11.64
2018-05-12T01:41:22.470Z,11.69
2018-05-12T01:42:22.394Z,11.53
2018-05-12T01:43:22.319Z,11.60
2018-05-12T01:44:22.244Z,11.60
2018-05-12T01:45:22.169Z,11.59
2018-05-12T01:46:22.092Z,11.71
2018-05-12T01:47:22.018Z,11.59
2018-05-12T01:48:21.943Z,11.65
2018-05-12T01:49:21.868Z,11.68
2018-05-12T01:50:21.791Z,11.76
2018-05-12T01:51:21.716Z,11.67
2018-05-12T01:52:21.641Z,11.72
2018-05-12T01:53:21.566Z,11.86
2018-05-12T01:54:21.490Z,11.83
2018-05-12T01:55:21.416Z,11.74
2018-05-12T01:56:21.340Z,11.65
2018-05-12T01:57:21.267Z,11.69
2018-05-12T01:58:21.193Z,11.71
2018-05-12T01:59:21.115Z,11.68
2018-05-12T02:00:21.041Z,11.69
2018-05-12T02:01:20.966Z,11.68
2018-05-12T02:02:20.893Z,11.69
2018-05-12T02:03:20.814Z,11.74
2018-05-12T02:04:20.740Z,11.72
2018-05-12T02:05:20.664Z,11.72
2018-05-12T02:06:20.589Z,11.69
2018-05-12T02:07:20.514Z,11.76
2018-05-12T02:08:20.440Z,11.74
2018-05-12T02:09:20.365Z,11.72
2018-05-12T02:10:20.287Z,11.74
2018-05-12T02:11:20.216Z,11.76
2018-05-12T02:12:20.137Z,11.79
2018-05-12T02:13:20.064Z,11.79
2018-05-12T02:14:19.987Z,11.84
2018-05-12T02:15:19.911Z,11.79
2018-05-12T02:16:19.837Z,11.81
2018-05-12T02:17:19.763Z,11.76
2018-05-12T02:18:19.685Z,11.79
2018-05-12T02:19:19.612Z,11.72
2018-05-12T02:20:19.540Z,11.67
2018-05-12T02:21:19.468Z,11.74
2018-05-12T02:22:19.389Z,11.78
2018-05-12T02:23:19.311Z,11.71
2018-05-12T02:24:19.237Z,11.64
2018-05-12T02:25:19.161Z,11.65
2018-05-12T02:26:19.084Z,11.72
2018-05-12T02:27:19.009Z,11.68
2018-05-12T02:28:18.935Z,11.69
2018-05-12T02:29:18.860Z,11.69
2018-05-12T02:30:18.911Z,11.68
2018-05-12T02:31:18.709Z,11.68
2018-05-12T02:32:18.634Z,11.67
2018-05-12T02:33:18.565Z,11.67
2018-05-12T02:34:18.488Z,11.72
2018-05-12T02:35:18.408Z,11.74
2018-05-12T02:36:18.337Z,11.75
2018-05-12T02:37:18.259Z,11.69
2018-05-12T02:38:18.201Z,11.72
2018-05-12T02:39:18.108Z,11.71
2018-05-12T02:40:18.033Z,11.75
2018-05-12T02:41:17.958Z,11.69
2018-05-12T02:42:17.920Z,11.74
2018-05-12T02:43:17.808Z,11.76
2018-05-12T02:44:17.733Z,11.78
2018-05-12T02:45:17.658Z,11.69
2018-05-12T02:46:17.581Z,11.71
2018-05-12T02:47:17.507Z,11.68
2018-05-12T02:48:17.434Z,11.68
2018-05-12T02:49:17.359Z,11.67
2018-05-12T02:50:17.283Z,11.72
2018-05-12T02:51:17.205Z,11.83
2018-05-12T02:52:17.131Z,11.81
2018-05-12T02:53:17.059Z,11.81
2018-05-12T02:54:16.980Z,11.84
2018-05-12T02:55:16.906Z,11.78
2018-05-12T02:56:16.831Z,11.81
2018-05-12T02:57:16.755Z,11.83
2018-05-12T02:58:16.679Z,11.87
2018-05-12T02:59:16.604Z,11.87
2018-05-12T03:00:16.528Z,11.89
2018-05-12T03:01:16.455Z,11.89
2018-05-12T03:02:16.379Z,11.90
2018-05-12T03:03:16.303Z,11.87
2018-05-12T03:04:16.228Z,11.79
2018-05-12T03:05:16.154Z,11.83
2018-05-12T03:06:16.079Z,11.90
2018-05-12T03:07:16.004Z,11.89
2018-05-12T03:08:15.935Z,11.90
2018-05-12T03:09:15.854Z,11.90
2018-05-12T03:10:15.778Z,11.74
2018-05-12T03:11:15.702Z,11.71
2018-05-12T03:12:15.626Z,11.74
2018-05-12T03:13:15.556Z,11.65
2018-05-12T03:14:15.477Z,11.71
2018-05-12T03:15:15.403Z,11.68
2018-05-12T03:16:15.328Z,11.71
2018-05-12T03:17:15.253Z,11.67
2018-05-12T03:18:15.179Z,11.69
2018-05-12T03:19:15.102Z,11.65
2018-05-12T03:20:15.027Z,11.56
2018-05-12T03:21:14.951Z,11.53
2018-05-12T03:22:14.876Z,11.56
2018-05-12T03:23:14.801Z,11.57
2018-05-12T03:24:14.726Z,11.54
2018-05-12T03:25:14.650Z,11.59
2018-05-12T03:26:14.575Z,11.56
2018-05-12T03:27:14.500Z,11.59
2018-05-12T03:28:14.425Z,11.47
2018-05-12T03:29:14.349Z,11.43
2018-05-12T03:30:14.274Z,11.42
2018-05-12T03:31:14.198Z,11.36
2018-05-12T03:32:14.123Z,11.38
2018-05-12T03:33:14.048Z,11.43
2018-05-12T03:34:13.972Z,11.56
2018-05-12T03:35:13.897Z,11.47
2018-05-12T03:36:13.822Z,11.34
2018-05-12T03:37:13.748Z,11.29
2018-05-12T03:38:13.670Z,11.29
2018-05-12T03:39:13.596Z,11.29
2018-05-12T03:40:13.520Z,11.28
2018-05-12T03:41:13.445Z,11.32
2018-05-12T03:42:13.370Z,11.38
2018-05-12T03:43:13.295Z,11.32
2018-05-12T03:44:13.219Z,11.34
2018-05-12T03:45:13.146Z,11.20
2018-05-12T03:46:13.068Z,11.21
2018-05-12T03:47:12.992Z,11.18
2018-05-12T03:48:12.918Z,11.05
2018-05-12T03:49:12.844Z,11.05
2018-05-12T03:50:12.765Z,11.08
2018-05-12T03:51:12.690Z,11.05
2018-05-12T03:52:12.614Z,10.92
2018-05-12T03:53:12.539Z,10.95
2018-05-12T03:54:12.463Z,10.80
2018-05-12T03:55:12.388Z,10.85
2018-05-12T03:56:12.312Z,10.85
2018-05-12T03:57:12.237Z,10.81
2018-05-12T03:58:12.161Z,10.84
2018-05-12T03:59:12.086Z,10.85
2018-05-12T04:00:12.010Z,10.95
2018-05-12T04:01:11.934Z,10.91
2018-05-12T04:02:11.857Z,10.87
2018-05-12T04:03:11.782Z,10.91
2018-05-12T04:04:11.709Z,10.99
2018-05-12T04:05:11.632Z,10.95
2018-05-12T04:06:11.554Z,10.98
2018-05-12T04:07:11.482Z,10.95
2018-05-12T04:08:11.405Z,11.02
2018-05-12T04:09:11.329Z,11.03
2018-05-12T04:10:11.252Z,11.06
2018-05-12T04:11:11.178Z,11.17
2018-05-12T04:12:11.104Z,11.17
2018-05-12T04:13:11.027Z,11.24
2018-05-12T04:14:10.950Z,11.26
2018-05-12T04:15:10.879Z,11.26
2018-05-12T04:16:10.798Z,11.38
2018-05-12T04:17:10.723Z,11.34
2018-05-12T04:18:10.998Z,11.36
2018-05-12T04:19:10.573Z,11.32
2018-05-12T04:20:10.496Z,11.29
2018-05-12T04:21:10.420Z,11.31
2018-05-12T04:22:10.345Z,11.36
2018-05-12T04:23:10.270Z,11.31
2018-05-12T04:24:10.195Z,11.41
2018-05-12T04:25:10.119Z,11.41
2018-05-12T04:26:10.046Z,11.46
2018-05-12T04:27:09.974Z,11.29
2018-05-12T04:28:09.893Z,11.32
2018-05-12T04:29:09.816Z,11.17
2018-05-12T04:30:09.741Z,11.16
2018-05-12T04:31:09.666Z,11.13
2018-05-12T04:32:09.590Z,11.18
2018-05-12T04:33:09.517Z,11.14
2018-05-12T04:34:09.444Z,11.24
2018-05-12T04:35:09.363Z,11.18
2018-05-12T04:36:09.288Z,11.18
2018-05-12T04:37:09.213Z,11.18
2018-05-12T04:38:09.136Z,11.29
2018-05-12T04:39:09.061Z,11.17
2018-05-12T04:40:08.987Z,11.14
2018-05-12T04:41:08.910Z,11.20
2018-05-12T04:42:08.833Z,11.17
2018-05-12T04:43:08.760Z,11.17
2018-05-12T04:44:08.683Z,11.21
2018-05-12T04:45:08.608Z,11.18
2018-05-12T04:46:08.532Z,11.23
2018-05-12T04:47:08.457Z,11.26
2018-05-12T04:48:08.381Z,11.18
2018-05-12T04:49:08.307Z,11.17
2018-05-12T04:50:08.237Z,11.17
2018-05-12T04:51:08.154Z,11.24
2018-05-12T04:52:08.080Z,11.29
2018-05-12T04:53:08.012Z,11.29
2018-05-12T04:54:07.964Z,11.29
2018-05-12T04:55:07.854Z,11.35
2018-05-12T04:56:07.779Z,11.43
2018-05-12T04:57:07.704Z,11.42
2018-05-12T04:58:07.626Z,11.38
2018-05-12T04:59:07.552Z,11.42
2018-05-12T05:00:07.480Z,11.49
2018-05-12T05:01:07.401Z,11.54
2018-05-12T05:02:07.325Z,11.51
2018-05-12T05:03:07.250Z,11.56
2018-05-12T05:04:07.175Z,11.68
2018-05-12T05:05:07.099Z,11.67
2018-05-12T05:06:07.024Z,11.68
2018-05-12T05:07:06.952Z,11.75
2018-05-12T05:08:06.911Z,11.71
2018-05-12T05:09:06.798Z,11.74
2018-05-12T05:10:06.723Z,11.84
2018-05-12T05:11:06.648Z,11.81
2018-05-12T05:12:06.572Z,11.94
2018-05-12T05:13:06.498Z,11.95
2018-05-12T05:14:06.422Z,12.12
2018-05-12T05:15:06.349Z,12.12
2018-05-12T05:16:06.275Z,12.21
2018-05-12T05:17:06.198Z,12.26
2018-05-12T05:18:06.125Z,12.34
2018-05-12T05:19:06.048Z,12.36
2018-05-12T05:20:05.980Z,12.37
2018-05-12T05:21:05.902Z,12.44
2018-05-12T05:22:05.823Z,12.49
2018-05-12T05:23:05.749Z,12.55
2018-05-12T05:24:05.675Z,12.60
2018-05-12T05:25:05.601Z,12.59
2018-05-12T05:26:05.524Z,12.59
2018-05-12T05:27:05.451Z,12.59
2018-05-12T05:28:05.376Z,12.78
2018-05-12T05:29:05.306Z,12.71
2018-05-12T05:30:05.227Z,12.74
2018-05-12T05:31:05.153Z,12.77
2018-05-12T05:32:05.078Z,12.81
2018-05-12T05:33:05.005Z,12.81
2018-05-12T05:34:04.928Z,12.91
2018-05-12T05:35:04.855Z,12.88
2018-05-12T05:36:04.795Z,12.94
2018-05-12T05:37:04.706Z,12.97
2018-05-12T05:38:04.630Z,12.99
2018-05-12T05:39:04.557Z,13.03
2018-05-12T05:40:04.483Z,13.07
2018-05-12T05:41:04.410Z,13.09
2018-05-12T05:42:04.334Z,13.22
2018-05-12T05:43:04.262Z,13.25
2018-05-12T05:44:04.191Z,13.27
2018-05-12T05:45:04.115Z,13.36
2018-05-12T05:46:04.041Z,13.38
2018-05-12T05:47:03.968Z,13.44
2018-05-12T05:48:03.892Z,13.45
2018-05-12T05:49:03.818Z,13.53
2018-05-12T05:50:03.744Z,13.58
2018-05-12T05:51:04.020Z,13.66
2018-05-12T05:52:03.595Z,13.66
2018-05-12T05:53:03.524Z,13.73
2018-05-12T05:54:03.449Z,13.73
2018-05-12T05:55:03.374Z,13.68
2018-05-12T05:56:03.302Z,13.80
2018-05-12T05:57:03.231Z,13.92
2018-05-12T05:58:03.154Z,13.87
2018-05-12T05:59:03.079Z,13.92
2018-05-12T06:00:03.006Z,13.96
2018-05-12T06:01:02.933Z,14.03
2018-05-12T06:02:02.858Z,14.10
2018-05-12T06:03:02.785Z,14.16
2018-05-12T06:04:02.710Z,14.27
2018-05-12T06:05:02.637Z,14.28
2018-05-12T06:06:02.569Z,14.34
2018-05-12T06:07:02.497Z,14.34
2018-05-12T06:08:02.417Z,14.38
2018-05-12T06:09:02.360Z,14.36
2018-05-12T06:10:02.268Z,14.42
2018-05-12T06:11:02.195Z,14.44
2018-05-12T06:12:02.183Z,14.52
2018-05-12T06:13:02.056Z,14.59
2018-05-12T06:14:01.978Z,14.68
2018-05-12T06:15:01.902Z,14.68
2018-05-12T06:16:01.829Z,14.72
2018-05-12T06:17:01.756Z,14.74
2018-05-12T06:18:01.753Z,14.79
2018-05-12T06:19:01.609Z,14.90
2018-05-12T06:20:01.536Z,15.01
2018-05-12T06:21:01.464Z,15.01
2018-05-12T06:22:01.391Z,15.13
2018-05-12T06:23:01.317Z,15.18
2018-05-12T06:24:01.253Z,15.30
2018-05-12T06:25:01.173Z,15.41
2018-05-12T06:26:01.100Z,15.41
2018-05-12T06:27:01.025Z,15.43
2018-05-12T06:28:01.002Z,15.39
2018-05-12T06:29:00.881Z,15.46
2018-05-12T06:30:00.809Z,15.57
2018-05-12T06:31:00.735Z,15.67
2018-05-12T06:32:00.664Z,15.68
2018-05-12T06:33:00.595Z,15.67
2018-05-12T06:34:00.519Z,15.70
2018-05-12T06:35:00.447Z,15.81
2018-05-12T06:36:00.375Z,15.97
2018-05-12T06:37:00.302Z,15.94
2018-05-12T06:38:00.228Z,16.03
2018-05-12T06:39:00.240Z,16.10
2018-05-12T06:40:00.091Z,16.08
2018-05-12T06:41:00.016Z,16.27
2018-05-12T06:41:59.941Z,16.34
2018-05-12T06:42:59.869Z,16.29
2018-05-12T06:43:59.796Z,16.30
2018-05-12T06:44:59.753Z,16.40
2018-05-12T06:45:59.652Z,16.63
2018-05-12T06:46:59.580Z,16.65
2018-05-12T06:47:59.508Z,16.70
2018-05-12T06:48:59.437Z,16.80
2018-05-12T06:49:59.364Z,16.78
2018-05-12T06:50:59.292Z,16.85
2018-05-12T06:51:59.221Z,16.85
2018-05-12T06:52:59.148Z,16.81
2018-05-12T06:53:59.077Z,16.78
2018-05-12T06:54:59.005Z,16.81
2018-05-12T06:55:58.933Z,16.81
2018-05-12T06:56:58.863Z,16.89
2018-05-12T06:57:58.791Z,16.90
2018-05-12T06:58:58.719Z,16.98
2018-05-12T06:59:58.648Z,16.99
2018-05-12T07:00:58.576Z,16.99
2018-05-12T07:01:58.507Z,17.15
2018-05-12T07:02:58.434Z,17.25
2018-05-12T07:03:58.361Z,17.23
2018-05-12T07:04:58.291Z,17.29
2018-05-12T07:05:58.222Z,17.48
2018-05-12T07:06:58.147Z,17.66
2018-05-12T07:07:58.077Z,17.67
2018-05-12T07:08:58.008Z,17.67
2018-05-12T07:09:57.936Z,17.70
2018-05-12T07:10:57.865Z,17.91
2018-05-12T07:11:57.793Z,18.03
2018-05-12T07:12:57.726Z,18.07
2018-05-12T07:13:57.653Z,18.24
2018-05-12T07:14:57.579Z,18.28
2018-05-12T07:15:57.512Z,18.32
2018-05-12T07:16:57.438Z,18.46
2018-05-12T07:17:57.366Z,18.39
2018-05-12T07:18:57.296Z,18.52
2018-05-12T07:19:57.225Z,18.55
2018-05-12T07:20:57.154Z,18.67
2018-05-12T07:21:57.085Z,18.68
2018-05-12T07:22:57.012Z,18.80
2018-05-12T07:23:56.943Z,18.95
2018-05-12T07:24:56.873Z,18.97
2018-05-12T07:25:56.801Z,19.09
2018-05-12T07:26:56.731Z,19.11
2018-05-12T07:27:56.662Z,19.17
2018-05-12T07:28:56.589Z,19.21
2018-05-12T07:29:56.519Z,19.33
2018-05-12T07:30:56.450Z,19.32
2018-05-12T07:31:56.378Z,19.43
2018-05-12T07:32:56.314Z,19.40
2018-05-12T07:33:56.237Z,19.40
2018-05-12T07:34:56.167Z,19.57
2018-05-12T07:35:56.097Z,19.51
2018-05-12T07:36:56.028Z,19.65
2018-05-12T07:37:55.957Z,19.61
2018-05-12T07:38:55.980Z,19.61
2018-05-12T07:39:55.816Z,19.68
2018-05-12T07:40:55.746Z,19.71
2018-05-12T07:41:55.675Z,19.69
2018-05-12T07:42:55.604Z,19.72
2018-05-12T07:43:55.534Z,19.75
2018-05-12T07:44:55.466Z,19.87
2018-05-12T07:45:55.394Z,19.83
2018-05-12T07:46:55.324Z,19.91
2018-05-12T07:47:55.255Z,19.97
2018-05-12T07:48:55.186Z,20.05
2018-05-12T07:49:55.114Z,19.98
2018-05-12T07:50:55.045Z,19.94
2018-05-12T07:51:54.974Z,19.93
2018-05-12T07:52:54.904Z,20.09
2018-05-12T07:53:54.833Z,20.09
2018-05-12T07:54:54.763Z,20.12
2018-05-12T07:55:54.693Z,20.18
2018-05-12T07:56:54.712Z,20.13
2018-05-12T07:57:54.556Z,20.19
2018-05-12T07:58:54.483Z,20.15
2018-05-12T07:59:54.414Z,20.26
2018-05-12T08:00:54.344Z,20.38
2018-05-12T08:01:54.274Z,20.38
2018-05-12T08:02:54.204Z,20.30
2018-05-12T08:03:54.133Z,20.28
2018-05-12T08:04:54.065Z,20.20
2018-05-12T08:05:53.993Z,20.26
2018-05-12T08:06:53.927Z,20.38
2018-05-12T08:07:53.856Z,20.33
2018-05-12T08:08:53.786Z,20.27
2018-05-12T08:09:53.715Z,20.30
2018-05-12T08:10:53.645Z,20.35
2018-05-12T08:11:53.576Z,20.28
2018-05-12T08:12:53.542Z,20.38
2018-05-12T08:13:53.435Z,20.42
2018-05-12T08:14:53.365Z,20.43
2018-05-12T08:15:53.296Z,20.47
2018-05-12T08:16:53.228Z,20.47
2018-05-12T08:17:53.162Z,20.59
2018-05-12T08:18:53.088Z,20.47
2018-05-12T08:19:53.019Z,20.49
2018-05-12T08:20:52.948Z,20.28
2018-05-12T08:21:52.878Z,20.42
2018-05-12T08:22:52.809Z,20.37
2018-05-12T08:23:52.740Z,20.54
2018-05-12T08:24:52.673Z,20.54
2018-05-12T08:25:52.600Z,20.64
2018-05-12T08:26:52.537Z,20.68
2018-05-12T08:27:52.460Z,20.74
2018-05-12T08:28:52.392Z,20.74
2018-05-12T08:29:52.326Z,20.75
2018-05-12T08:30:52.251Z,20.82
2018-05-12T08:31:52.182Z,20.82
2018-05-12T08:32:52.114Z,20.87
2018-05-12T08:33:52.047Z,20.84
2018-05-12T08:34:51.974Z,20.93
2018-05-12T08:35:51.904Z,20.74
2018-05-12T08:36:51.839Z,20.79
2018-05-12T08:37:51.767Z,20.82
2018-05-12T08:38:51.695Z,20.89
2018-05-12T08:39:51.626Z,20.91
2018-05-12T08:40:51.564Z,20.93
2018-05-12T08:41:51.487Z,21.06
2018-05-12T08:42:51.418Z,21.08
2018-05-12T08:43:51.353Z,21.16
2018-05-12T08:44:51.281Z,21.14
2018-05-12T08:45:51.211Z,21.21
2018-05-12T08:46:51.141Z,21.26
2018-05-12T08:47:51.073Z,21.26
2018-05-12T08:48:51.003Z,21.33
2018-05-12T08:49:50.933Z,21.39
2018-05-12T08:50:50.865Z,21.46
2018-05-12T08:51:50.796Z,21.53
2018-05-12T08:52:50.727Z,21.42
2018-05-12T08:53:50.659Z,21.61
2018-05-12T08:54:50.588Z,21.60
2018-05-12T08:55:50.518Z,21.60
2018-05-12T08:56:50.450Z,21.67
2018-05-12T08:57:50.381Z,21.59
2018-05-12T08:58:50.311Z,21.60
2018-05-12T08:59:50.243Z,21.63
2018-05-12T09:00:50.176Z,21.63
2018-05-12T09:01:50.105Z,21.70
2018-05-12T09:02:50.036Z,21.51
2018-05-12T09:03:49.968Z,21.49
2018-05-12T09:04:49.899Z,21.39
2018-05-12T09:05:49.829Z,21.44
2018-05-12T09:06:49.760Z,21.53
2018-05-12T09:07:49.691Z,21.51
2018-05-12T09:08:49.622Z,21.69
2018-05-12T09:09:49.553Z,21.78
2018-05-12T09:10:49.488Z,21.74
2018-05-12T09:11:49.416Z,21.75
2018-05-12T09:12:49.347Z,21.91
2018-05-12T09:13:49.276Z,21.91
2018-05-12T09:14:49.208Z,21.91
2018-05-12T09:15:49.139Z,21.95
2018-05-12T09:16:49.071Z,21.97
2018-05-12T09:17:49.000Z,21.97
2018-05-12T09:18:48.932Z,21.98
2018-05-12T09:19:48.864Z,21.98
2018-05-12T09:20:48.796Z,22.13
2018-05-12T09:21:48.725Z,22.10
2018-05-12T09:22:48.658Z,21.98
2018-05-12T09:23:48.590Z,21.91
2018-05-12T09:24:48.521Z,21.85
2018-05-12T09:25:48.452Z,21.79
2018-05-12T09:26:48.383Z,21.82
2018-05-12T09:27:48.315Z,21.76
2018-05-12T09:28:48.251Z,21.69
2018-05-12T09:29:48.177Z,21.60
2018-05-12T09:30:48.109Z,21.76
2018-05-12T09:31:48.040Z,21.70
2018-05-12T09:32:47.971Z,21.84
2018-05-12T09:33:47.903Z,21.72
2018-05-12T09:34:47.835Z,21.81
2018-05-12T09:35:47.765Z,21.72
2018-05-12T09:36:47.697Z,21.76
2018-05-12T09:37:47.631Z,21.85
2018-05-12T09:38:47.560Z,22.07
2018-05-12T09:39:47.491Z,22.32
2018-05-12T09:40:47.423Z,22.38
2018-05-12T09:41:47.354Z,22.62
2018-05-12T09:42:47.291Z,22.63
2018-05-12T09:43:47.217Z,22.68
2018-05-12T09:44:47.198Z,22.84
2018-05-12T09:45:47.080Z,22.71
2018-05-12T09:46:47.013Z,22.74
2018-05-12T09:47:46.943Z,22.63
2018-05-12T09:48:46.876Z,22.46
2018-05-12T09:49:46.807Z,22.65
2018-05-12T09:50:46.738Z,22.60
2018-05-12T09:51:46.672Z,22.81
2018-05-12T09:52:46.603Z,22.89
2018-05-12T09:53:46.535Z,23.11
2018-05-12T09:54:46.466Z,23.11
2018-05-12T09:55:46.400Z,23.02
2018-05-12T09:56:46.334Z,23.15
2018-05-12T09:57:46.264Z,23.17
2018-05-12T09:58:46.198Z,23.22
2018-05-12T09:59:46.129Z,23.18
2018-05-12T10:00:46.063Z,23.11
2018-05-12T10:01:45.994Z,23.23
2018-05-12T10:02:45.927Z,23.24
2018-05-12T10:03:45.859Z,23.17
2018-05-12T10:04:45.796Z,23.17
2018-05-12T10:05:45.723Z,22.94
2018-05-12T10:06:45.657Z,22.81
2018-05-12T10:07:45.593Z,22.72
2018-05-12T10:08:45.522Z,22.65
2018-05-12T10:09:45.459Z,22.52
2018-05-12T10:10:45.387Z,22.49
2018-05-12T10:11:45.318Z,22.52
2018-05-12T10:12:45.263Z,22.44
2018-05-12T10:13:45.183Z,22.47
2018-05-12T10:14:45.116Z,22.52
2018-05-12T10:15:45.047Z,22.50
2018-05-12T10:16:45.051Z,22.63
2018-05-12T10:17:44.911Z,22.93
2018-05-12T10:18:44.844Z,23.11
2018-05-12T10:19:44.776Z,23.15
2018-05-12T10:20:44.710Z,22.84
2018-05-12T10:21:44.642Z,22.81
2018-05-12T10:22:44.574Z,22.74
2018-05-12T10:23:44.506Z,22.71
2018-05-12T10:24:44.439Z,22.69
2018-05-12T10:25:44.371Z,22.69
2018-05-12T10:26:44.302Z,22.93
2018-05-12T10:27:44.236Z,23.05
2018-05-12T10:28:44.170Z,23.17
2018-05-12T10:29:44.100Z,23.08
2018-05-12T10:30:44.031Z,23.29
2018-05-12T10:31:43.965Z,23.46
2018-05-12T10:32:43.898Z,23.56
2018-05-12T10:33:43.829Z,23.79
2018-05-12T10:34:43.762Z,23.85
2018-05-12T10:35:43.694Z,23.79
2018-05-12T10:36:43.630Z,23.63
2018-05-12T10:37:43.560Z,23.60
2018-05-12T10:38:43.493Z,23.78
2018-05-12T10:39:43.428Z,23.61
2018-05-12T10:40:43.358Z,23.33
2018-05-12T10:41:43.291Z,23.17
2018-05-12T10:42:43.226Z,23.05
2018-05-12T10:43:43.156Z,22.99
2018-05-12T10:44:43.095Z,22.79
2018-05-12T10:45:43.023Z,22.74
2018-05-12T10:46:42.954Z,22.93
2018-05-12T10:47:42.888Z,23.20
2018-05-12T10:48:42.820Z,23.46
2018-05-12T10:49:42.752Z,23.61
2018-05-12T10:50:42.686Z,23.72
2018-05-12T10:51:42.618Z,23.85
2018-05-12T10:52:42.553Z,23.82
2018-05-12T10:53:42.484Z,23.89
2018-05-12T10:54:42.418Z,23.86
2018-05-12T10:55:42.351Z,23.93
2018-05-12T10:56:42.284Z,23.92
2018-05-12T10:57:42.215Z,24.00
2018-05-12T10:58:42.149Z,23.89
2018-05-12T10:59:42.084Z,23.87
2018-05-12T11:00:42.017Z,23.79
2018-05-12T11:01:41.948Z,23.72
2018-05-12T11:02:41.882Z,23.79
2018-05-12T11:03:41.817Z,23.40
2018-05-12T11:04:41.751Z,23.22
2018-05-12T11:05:41.683Z,23.05
2018-05-12T11:06:41.617Z,23.00
2018-05-12T11:07:41.553Z,22.90
2018-05-12T11:08:41.489Z,22.81
2018-05-12T11:09:41.422Z,22.87
2018-05-12T11:10:41.351Z,22.79
2018-05-12T11:11:41.284Z,22.89
2018-05-12T11:12:41.220Z,22.89
2018-05-12T11:13:41.150Z,22.97
2018-05-12T11:14:41.083Z,23.37
2018-05-12T11:15:41.016Z,23.49
2018-05-12T11:16:40.949Z,23.49
2018-05-12T11:17:40.883Z,23.15
2018-05-12T11:18:40.815Z,23.09
2018-05-12T11:19:40.778Z,23.12
2018-05-12T11:20:40.681Z,23.17
2018-05-12T11:21:40.713Z,23.12
2018-05-12T11:22:40.547Z,23.11
2018-05-12T11:23:40.481Z,23.26
2018-05-12T11:24:40.413Z,23.79
2018-05-12T11:25:40.349Z,24.00
2018-05-12T11:26:40.354Z,24.30
2018-05-12T11:27:40.213Z,24.40
2018-05-12T11:28:40.146Z,24.47
2018-05-12T11:29:40.079Z,24.20
2018-05-12T11:30:40.013Z,24.30
2018-05-12T11:31:39.947Z,24.17
2018-05-12T11:32:39.884Z,24.00
2018-05-12T11:33:39.814Z,23.83
2018-05-12T11:34:39.747Z,23.64
2018-05-12T11:35:39.682Z,23.70
2018-05-12T11:36:39.637Z,23.74
2018-05-12T11:37:39.549Z,23.85
2018-05-12T11:38:39.571Z,24.00
2018-05-12T11:39:39.416Z,24.37
2018-05-12T11:40:39.351Z,24.86
2018-05-12T11:41:39.286Z,24.76
2018-05-12T11:42:39.218Z,24.57
2018-05-12T11:43:39.153Z,24.27
2018-05-12T11:44:39.210Z,24.01
2018-05-12T11:45:39.020Z,23.86
2018-05-12T11:46:38.954Z,23.68
2018-05-12T11:47:38.889Z,23.67
2018-05-12T11:48:38.825Z,23.72
2018-05-12T11:49:38.759Z,23.82
2018-05-12T11:50:38.691Z,24.56
2018-05-12T11:51:38.626Z,25.87
2018-05-12T11:52:38.560Z,26.34
2018-05-12T11:53:38.494Z,26.46
2018-05-12T11:54:38.431Z,27.51
2018-05-12T11:55:38.365Z,28.61
2018-05-12T11:56:38.300Z,28.84
2018-05-12T11:57:38.237Z,29.16
2018-05-12T11:58:38.173Z,28.94
2018-05-12T11:59:38.111Z,28.25
2018-05-12T12:00:38.048Z,28.04
2018-05-12T12:01:37.985Z,27.67
2018-05-12T12:02:37.927Z,27.70
2018-05-12T12:03:37.876Z,27.69
2018-05-12T12:04:37.803Z,26.87
2018-05-12T12:05:37.740Z,25.83
2018-05-12T12:06:37.688Z,25.52
2018-05-12T12:07:37.622Z,25.16
2018-05-12T12:08:37.557Z,25.22
2018-05-12T12:09:37.501Z,25.84
2018-05-12T12:10:37.433Z,25.74
2018-05-12T12:11:37.372Z,25.57
2018-05-12T12:12:37.311Z,25.77
2018-05-12T12:13:37.249Z,26.72
2018-05-12T12:14:37.186Z,27.38
2018-05-12T12:15:37.125Z,27.69
2018-05-12T12:16:37.066Z,27.14
2018-05-12T12:17:37.001Z,26.23
2018-05-12T12:18:36.940Z,26.01
2018-05-12T12:19:36.879Z,26.08
2018-05-12T12:20:36.817Z,26.35
2018-05-12T12:21:36.756Z,27.08
2018-05-12T12:22:36.695Z,27.84
2018-05-12T12:23:36.634Z,28.81
2018-05-12T12:24:36.572Z,29.18
2018-05-12T12:25:36.512Z,29.21
2018-05-12T12:26:36.451Z,29.32
2018-05-12T12:27:36.393Z,29.38
2018-05-12T12:28:36.415Z,29.37
2018-05-12T12:29:36.272Z,28.94
2018-05-12T12:30:36.213Z,28.17
2018-05-12T12:31:36.154Z,27.70
2018-05-12T12:32:36.101Z,27.87
2018-05-12T12:33:36.037Z,27.72
2018-05-12T12:34:35.978Z,27.01
2018-05-12T12:35:35.918Z,26.76
2018-05-12T12:36:35.860Z,26.34
2018-05-12T12:37:35.800Z,26.21
2018-05-12T12:38:35.742Z,27.36
2018-05-12T12:39:35.681Z,28.46
2018-05-12T12:40:35.624Z,29.19
2018-05-12T12:41:35.561Z,28.41
2018-05-12T12:42:35.502Z,27.95
2018-05-12T12:43:35.448Z,27.39
2018-05-12T12:44:35.392Z,26.79
2018-05-12T12:45:35.325Z,26.43
2018-05-12T12:46:35.266Z,26.07
2018-05-12T12:47:35.210Z,25.50
2018-05-12T12:48:35.149Z,25.53
2018-05-12T12:49:35.086Z,25.40
2018-05-12T12:50:35.025Z,25.30
2018-05-12T12:51:34.966Z,25.17